createdAt,value
2019-01-05T00:00:46.308Z,88.60
2019-01-05T00:03:34.238Z,93.00
2019-01-05T00:06:21.218Z,84.53
2019-01-05T00:09:21.486Z,107.43
2019-01-05T00:12:09.312Z,107.23
2019-01-05T00:15:00.471Z,90.87
2019-01-05T00:17:47.451Z,99.47
2019-01-05T00:20:36.111Z,112.40
2019-01-05T00:23:39.108Z,95.07
2019-01-05T00:26:26.477Z,92.37
2019-01-05T00:29:07.495Z,86.60
2019-01-05T00:31:52.890Z,84.47
2019-01-05T00:34:44.988Z,104.17
2019-01-05T00:37:29.996Z,100.13
2019-01-05T00:40:19.913Z,104.30
2019-01-05T00:43:17.162Z,90.47
2019-01-05T00:46:12.025Z,93.27
2019-01-05T00:49:14.003Z,125.70
2019-01-05T00:52:03.238Z,115.40
2019-01-05T00:54:53.239Z,114.63
2019-01-05T00:57:37.646Z,112.47
2019-01-05T01:00:24.684Z,108.57
2019-01-05T01:03:27.818Z,109.57
2019-01-05T01:06:16.855Z,104.53
2019-01-05T01:09:04.827Z,92.23
2019-01-05T01:12:08.534Z,106.73
2019-01-05T01:14:54.587Z,83.07
2019-01-05T01:17:41.336Z,82.17
2019-01-05T01:20:45.136Z,88.57
2019-01-05T01:23:36.042Z,103.60
2019-01-05T01:26:23.182Z,97.60
2019-01-05T01:29:11.754Z,101.27
2019-01-05T01:31:59.776Z,84.83
2019-01-05T01:34:48.346Z,86.07
2019-01-05T01:37:31.010Z,92.57
2019-01-05T01:40:25.580Z,85.67
2019-01-05T01:43:12.344Z,83.50
2019-01-05T01:46:02.679Z,84.53
2019-01-05T01:48:42.874Z,79.17
2019-01-05T01:51:30.271Z,87.53
2019-01-05T01:54:18.431Z,79.70
2019-01-05T01:57:18.688Z,83.40
2019-01-05T02:00:01.770Z,92.67
2019-01-05T02:02:45.185Z,68.27
2019-01-05T02:05:45.502Z,80.07
2019-01-05T02:08:41.395Z,76.87
2019-01-05T02:11:35.600Z,82.13
2019-01-05T02:14:23.747Z,72.20
2019-01-05T02:17:32.014Z,73.00
2019-01-05T02:20:35.173Z,74.10
2019-01-05T02:24:01.433Z,82.00
2019-01-05T02:27:22.213Z,65.43
2019-01-05T02:31:00.462Z,59.80
2019-01-05T02:34:45.436Z,55.13
2019-01-05T02:38:12.448Z,53.63
2019-01-05T02:41:47.296Z,44.10
2019-01-05T02:45:18.006Z,46.57
2019-01-05T02:48:40.258Z,42.70
2019-01-05T02:51:57.703Z,31.90
2019-01-05T02:55:34.320Z,43.90
2019-01-05T02:58:59.324Z,36.33
2019-01-05T03:02:22.084Z,33.37
2019-01-05T03:05:41.341Z,37.27
2019-01-05T03:09:17.036Z,41.13
2019-01-05T03:12:51.601Z,37.60
2019-01-05T03:16:11.035Z,49.43
2019-01-05T03:19:23.948Z,34.73
2019-01-05T03:22:41.612Z,36.07
2019-01-05T03:26:01.673Z,39.90
2019-01-05T03:29:23.761Z,33.33
2019-01-05T03:32:42.805Z,39.00
2019-01-05T03:36:01.009Z,31.90
2019-01-05T03:39:43.506Z,40.20
2019-01-05T03:43:12.608Z,44.70
2019-01-05T03:46:55.585Z,28.83
2019-01-05T03:50:16.690Z,31.40
2019-01-05T03:53:49.824Z,27.23
2019-01-05T03:57:21.277Z,29.87
2019-01-05T04:01:05.816Z,35.60
2019-01-05T04:04:40.206Z,29.50
2019-01-05T04:08:06.631Z,20.90
2019-01-05T04:11:39.741Z,32.70
2019-01-05T04:15:08.298Z,37.63
2019-01-05T04:18:23.134Z,22.67
2019-01-05T04:21:45.871Z,23.63
2019-01-05T04:25:24.258Z,20.27
2019-01-05T04:28:46.485Z,26.30
2019-01-05T04:32:03.931Z,26.00
2019-01-05T04:35:28.049Z,29.90
2019-01-05T04:38:47.140Z,36.83
2019-01-05T04:41:52.637Z,29.70
2019-01-05T04:45:04.565Z,26.67
2019-01-05T04:48:18.372Z,18.07
2019-01-05T04:51:59.275Z,25.43
2019-01-05T04:55:14.834Z,18.47
2019-01-05T04:58:43.907Z,30.13
2019-01-05T05:02:12.401Z,20.87
2019-01-05T05:05:46.522Z,25.57
2019-01-05T05:09:49.144Z,31.93
2019-01-05T05:13:12.204Z,28.77
2019-01-05T05:16:56.170Z,28.30
2019-01-05T05:20:17.695Z,30.57
2019-01-05T05:23:41.065Z,29.93
2019-01-05T05:27:26.752Z,32.67
2019-01-05T05:30:39.214Z,40.30
2019-01-05T05:34:27.743Z,34.00
2019-01-05T05:37:55.116Z,36.57
2019-01-05T05:41:25.234Z,40.07
2019-01-05T05:44:55.601Z,28.93
2019-01-05T05:48:37.358Z,34.37
2019-01-05T05:52:20.095Z,35.77
2019-01-05T05:55:47.364Z,29.43
2019-01-05T05:59:14.338Z,27.03
2019-01-05T06:02:43.719Z,23.40
2019-01-05T06:06:23.365Z,30.33
2019-01-05T06:09:55.063Z,27.20
2019-01-05T06:13:28.655Z,24.20
2019-01-05T06:16:42.691Z,21.53
2019-01-05T06:20:01.010Z,24.80
2019-01-05T06:23:29.153Z,27.50
2019-01-05T06:27:02.951Z,28.73
2019-01-05T06:30:45.871Z,33.87
2019-01-05T06:33:59.419Z,34.83
2019-01-05T06:47:49.147Z,38.40
2019-01-05T06:51:16.449Z,32.73
2019-01-05T06:54:40.348Z,32.70
2019-01-05T06:58:16.343Z,38.70
2019-01-05T07:01:46.708Z,46.23
2019-01-05T07:05:24.514Z,37.87
2019-01-05T07:08:46.939Z,40.00
2019-01-05T07:12:05.147Z,28.90
2019-01-05T07:15:51.104Z,23.27
2019-01-05T07:19:27.640Z,27.37
2019-01-05T07:22:59.261Z,30.17
2019-01-05T07:26:36.188Z,17.60
2019-01-05T07:30:14.777Z,15.90
2019-01-05T07:33:50.316Z,11.13
2019-01-05T07:37:20.996Z,10.40
2019-01-05T07:41:04.539Z,13.23
2019-01-05T07:44:23.609Z,7.17
2019-01-05T07:47:59.767Z,6.93
2019-01-05T07:51:42.346Z,13.27
2019-01-05T07:55:04.855Z,6.23
2019-01-05T07:58:25.222Z,6.07
2019-01-05T08:02:04.754Z,10.90
2019-01-05T08:05:19.267Z,10.67
2019-01-05T08:08:56.198Z,8.70
2019-01-05T08:12:30.276Z,11.17
2019-01-05T08:16:05.142Z,8.33
2019-01-05T08:19:57.655Z,5.73
2019-01-05T08:23:24.299Z,9.83
2019-01-05T08:26:48.074Z,12.17
2019-01-05T08:30:07.904Z,11.90
2019-01-05T08:33:46.599Z,10.97
2019-01-05T08:37:06.742Z,18.57
2019-01-05T08:40:41.971Z,14.17
2019-01-05T08:44:29.421Z,9.07
2019-01-05T08:48:01.600Z,17.80
2019-01-05T08:51:41.928Z,6.30
2019-01-05T08:55:09.925Z,9.53
2019-01-05T08:58:33.773Z,12.07
2019-01-05T09:01:49.573Z,19.27
2019-01-05T09:05:09.171Z,17.03
2019-01-05T09:08:29.215Z,27.17
2019-01-05T09:11:50.519Z,21.70
2019-01-05T09:15:54.628Z,10.23
2019-01-05T09:19:37.982Z,19.57
2019-01-05T09:23:16.793Z,22.07
2019-01-05T09:27:20.483Z,12.50
2019-01-05T09:30:53.769Z,16.53
2019-01-05T09:34:15.085Z,12.20
2019-01-05T09:38:00.400Z,15.53
2019-01-05T09:41:38.190Z,14.07
2019-01-05T09:45:01.975Z,12.43
2019-01-05T09:48:40.275Z,15.47
2019-01-05T09:52:24.679Z,6.23
2019-01-05T09:56:10.002Z,11.20
2019-01-05T09:59:29.628Z,5.70
2019-01-05T10:03:04.396Z,9.90
2019-01-05T10:06:24.127Z,7.10
2019-01-05T10:10:18.837Z,13.73
2019-01-05T10:13:56.675Z,7.10
2019-01-05T10:17:27.484Z,13.07
2019-01-05T10:20:53.755Z,6.83
2019-01-05T10:24:25.407Z,11.33
2019-01-05T10:27:50.665Z,8.60
2019-01-05T10:31:29.113Z,8.00
2019-01-05T10:35:11.009Z,5.50
2019-01-05T10:38:47.944Z,8.83
2019-01-05T10:42:26.250Z,8.83
2019-01-05T10:45:56.890Z,6.03
2019-01-05T10:49:19.492Z,16.17
2019-01-05T10:52:47.176Z,9.90
2019-01-05T10:56:23.959Z,9.47
2019-01-05T10:59:46.335Z,6.20
2019-01-05T11:03:39.234Z,8.73
2019-01-05T11:06:59.117Z,14.90
2019-01-05T11:10:34.656Z,5.20
2019-01-05T11:14:15.665Z,11.47
2019-01-05T11:17:19.502Z,15.47
2019-01-05T11:20:36.816Z,9.50
2019-01-05T11:23:41.532Z,9.20
2019-01-05T11:26:57.883Z,20.47
2019-01-05T11:30:40.512Z,6.93
2019-01-05T11:34:22.175Z,16.37
2019-01-05T11:37:35.955Z,7.40
2019-01-05T11:40:54.568Z,9.90
2019-01-05T11:44:17.299Z,13.63
2019-01-05T11:47:44.382Z,10.10
2019-01-05T11:51:12.288Z,7.63
2019-01-05T11:54:23.481Z,8.10
2019-01-05T11:58:06.499Z,11.63
2019-01-05T12:01:17.454Z,9.53
2019-01-05T12:04:55.733Z,9.30
2019-01-05T12:08:29.003Z,15.80
2019-01-05T12:11:56.475Z,16.77
2019-01-05T12:15:30.489Z,10.83
2019-01-05T12:19:05.991Z,10.00
2019-01-05T12:22:37.262Z,9.13
2019-01-05T12:25:55.328Z,11.63
2019-01-05T12:29:20.184Z,12.40
2019-01-05T12:32:47.661Z,6.20
2019-01-05T12:36:28.051Z,10.20
2019-01-05T12:40:15.569Z,11.00
2019-01-05T12:43:59.507Z,12.20
2019-01-05T12:47:09.353Z,10.50
2019-01-05T12:50:41.967Z,10.10
2019-01-05T12:54:17.879Z,8.13
2019-01-05T12:57:56.516Z,9.77
2019-01-05T13:01:26.883Z,8.60
2019-01-05T13:04:56.339Z,12.33
2019-01-05T13:08:37.723Z,8.13
2019-01-05T13:12:18.135Z,12.57
2019-01-05T13:15:51.827Z,12.30
2019-01-05T13:19:20.155Z,9.90
2019-01-05T13:22:59.827Z,14.77
2019-01-05T13:26:30.038Z,9.87
2019-01-05T13:29:58.864Z,7.63
2019-01-05T13:33:23.399Z,13.70
2019-01-05T13:36:48.677Z,7.20
2019-01-05T13:40:04.195Z,6.87
2019-01-05T13:43:34.868Z,7.07
2019-01-05T13:47:01.095Z,10.20
2019-01-05T13:50:32.374Z,6.40
2019-01-05T13:53:35.488Z,8.33
2019-01-05T13:56:32.915Z,9.63
2019-01-05T13:59:22.968Z,6.60
2019-01-05T14:02:18.950Z,6.17
2019-01-05T14:05:17.183Z,9.27
2019-01-05T14:08:23.878Z,12.27
2019-01-05T14:11:10.762Z,6.30
2019-01-05T14:14:17.759Z,5.73
2019-01-05T14:17:04.192Z,7.73
2019-01-05T14:19:50.780Z,5.47
2019-01-05T14:22:38.674Z,21.20
2019-01-05T14:25:30.063Z,9.83
2019-01-05T14:28:16.765Z,2.73
2019-01-05T14:31:04.296Z,10.87
2019-01-05T14:33:53.823Z,4.47
2019-01-05T14:36:41.728Z,6.87
2019-01-05T14:39:33.220Z,7.83
2019-01-05T14:42:20.319Z,4.50
2019-01-05T14:45:16.434Z,10.57
2019-01-05T14:48:02.063Z,8.43
2019-01-05T14:50:47.295Z,5.90
2019-01-05T14:53:33.565Z,7.23
2019-01-05T14:56:20.744Z,8.77
2019-01-05T14:59:27.024Z,7.53
2019-01-05T15:02:29.924Z,9.47
2019-01-05T15:05:32.740Z,6.90
2019-01-05T15:08:20.770Z,6.87
2019-01-05T15:11:14.545Z,10.70
2019-01-05T15:14:16.652Z,10.73
2019-01-05T15:17:02.985Z,5.93
2019-01-05T15:19:54.045Z,6.03
2019-01-05T15:22:43.845Z,6.13
2019-01-05T15:25:30.823Z,4.90
2019-01-05T15:28:31.116Z,9.63
2019-01-05T15:31:21.821Z,7.50
2019-01-05T15:34:09.789Z,14.50
2019-01-05T15:37:00.515Z,12.80
2019-01-05T15:39:54.321Z,8.63
2019-01-05T15:42:41.021Z,11.43
2019-01-05T15:45:41.251Z,14.57
2019-01-05T15:48:25.767Z,18.97
2019-01-05T15:51:12.756Z,12.13
2019-01-05T15:54:06.743Z,7.97
2019-01-05T15:56:53.837Z,21.47
2019-01-05T15:59:42.068Z,12.37
2019-01-05T16:02:34.141Z,15.03
2019-01-05T16:05:19.722Z,11.10
2019-01-05T16:08:22.730Z,8.23
2019-01-05T16:11:09.307Z,18.40
2019-01-05T16:14:04.013Z,15.10
2019-01-05T16:16:55.906Z,10.73
2019-01-05T16:19:37.738Z,18.53
2019-01-05T16:22:25.767Z,17.07
2019-01-05T16:25:12.730Z,12.03
2019-01-05T16:28:06.615Z,17.17
2019-01-05T16:30:57.826Z,19.23
2019-01-05T16:33:55.080Z,14.73
2019-01-05T16:36:42.956Z,13.67
2019-01-05T16:39:34.897Z,19.53
2019-01-05T16:42:28.663Z,17.03
2019-01-05T16:45:16.599Z,20.33
2019-01-05T16:48:04.490Z,13.63
2019-01-05T16:50:51.277Z,15.33
2019-01-05T16:53:39.203Z,15.73
2019-01-05T16:56:26.672Z,16.77
2019-01-05T16:59:23.727Z,13.77
2019-01-05T17:02:26.872Z,13.00
2019-01-05T17:05:29.932Z,14.53
2019-01-05T17:08:17.837Z,20.63
2019-01-05T17:11:03.383Z,18.30
2019-01-05T17:13:50.103Z,22.33
2019-01-05T17:16:37.491Z,15.93
2019-01-05T17:19:24.088Z,33.10
2019-01-05T17:22:04.214Z,15.13
2019-01-05T17:24:50.858Z,18.03
2019-01-05T17:27:38.103Z,15.67
2019-01-05T17:30:36.975Z,16.83
2019-01-05T17:33:25.264Z,16.00
2019-01-05T17:36:05.804Z,15.47
2019-01-05T17:38:59.963Z,13.80
2019-01-05T17:41:46.694Z,23.33
2019-01-05T17:44:33.604Z,17.83
2019-01-05T17:47:30.662Z,23.00
2019-01-05T17:50:27.939Z,11.73
2019-01-05T17:53:27.913Z,16.63
2019-01-05T17:56:11.173Z,24.27
2019-01-05T17:58:53.541Z,15.43
2019-01-05T18:01:40.379Z,15.20
2019-01-05T18:04:43.503Z,23.93
2019-01-05T18:07:46.899Z,20.90
2019-01-05T18:10:33.803Z,15.40
2019-01-05T18:13:20.595Z,13.60
2019-01-05T18:16:19.073Z,11.00
2019-01-05T18:19:11.900Z,11.67
2019-01-05T18:21:59.896Z,13.80
2019-01-05T18:24:46.636Z,11.17
2019-01-05T18:27:33.668Z,10.50
2019-01-05T18:30:20.703Z,15.03
2019-01-05T18:33:11.462Z,11.47
2019-01-05T18:36:14.583Z,11.87
2019-01-05T18:38:53.839Z,17.53
2019-01-05T18:41:41.980Z,14.23
2019-01-05T18:44:40.101Z,12.63
2019-01-05T18:47:26.965Z,16.37
2019-01-05T18:50:11.943Z,21.97
2019-01-05T18:52:58.759Z,17.90
2019-01-05T18:55:45.160Z,14.03
2019-01-05T18:58:25.995Z,20.03
2019-01-05T19:01:16.929Z,21.63
2019-01-05T19:04:03.764Z,14.37
2019-01-05T19:06:51.097Z,20.53
2019-01-05T19:09:54.268Z,22.27
2019-01-05T19:12:48.340Z,20.07
2019-01-05T19:15:28.462Z,23.63
2019-01-05T19:18:25.233Z,22.07
2019-01-05T19:21:28.331Z,17.00
2019-01-05T19:24:15.009Z,23.90
2019-01-05T19:26:51.400Z,28.13
2019-01-05T19:29:34.168Z,14.20
2019-01-05T19:32:32.387Z,14.43
2019-01-05T19:35:12.960Z,14.50
2019-01-05T19:37:59.482Z,15.67
2019-01-05T19:40:50.159Z,21.90
2019-01-05T19:43:38.375Z,22.73
2019-01-05T19:46:25.437Z,30.20
2019-01-05T19:49:12.536Z,19.80
2019-01-05T19:52:00.427Z,19.80
2019-01-05T19:54:50.322Z,23.23
2019-01-05T19:57:37.066Z,23.20
2019-01-05T20:01:02.064Z,32.53
2019-01-05T20:03:49.431Z,26.63
2019-01-05T20:06:35.981Z,24.80
2019-01-05T20:09:23.874Z,33.47
2019-01-05T20:12:11.311Z,26.20
2019-01-05T20:14:57.956Z,38.70
2019-01-05T20:17:50.940Z,27.17
2019-01-05T20:20:37.338Z,24.10
2019-01-05T20:23:26.447Z,23.00
2019-01-05T20:26:20.379Z,24.27
2019-01-05T20:29:07.246Z,21.13
2019-01-05T20:31:50.502Z,32.37
2019-01-05T20:34:37.026Z,24.63
2019-01-05T20:37:19.312Z,29.37
2019-01-05T20:40:05.934Z,18.50
2019-01-05T20:43:12.268Z,21.13
2019-01-05T20:45:59.091Z,27.43
2019-01-05T20:48:47.002Z,17.30
2019-01-05T20:51:34.921Z,15.80
2019-01-05T20:54:21.271Z,17.43
2019-01-05T20:57:07.880Z,19.33
2019-01-05T20:59:58.943Z,27.40
2019-01-05T21:02:46.953Z,20.83
2019-01-05T21:05:33.777Z,16.23
2019-01-05T21:08:14.313Z,19.40
2019-01-05T21:11:02.221Z,19.60
2019-01-05T21:13:44.746Z,15.93
2019-01-05T21:16:31.835Z,14.10
2019-01-05T21:19:18.529Z,20.60
2019-01-05T21:21:58.799Z,16.63
2019-01-05T21:24:56.528Z,16.53
2019-01-05T21:27:59.668Z,18.33
2019-01-05T21:30:41.404Z,17.40
2019-01-05T21:33:35.352Z,26.83
2019-01-05T21:36:26.994Z,18.23
2019-01-05T21:39:13.698Z,23.63
2019-01-05T21:42:03.578Z,16.37
2019-01-05T21:44:49.566Z,14.70
2019-01-05T21:47:41.703Z,37.27
2019-01-05T21:50:27.704Z,11.73
2019-01-05T21:53:24.890Z,17.17
2019-01-05T21:56:11.880Z,21.17
2019-01-05T21:59:09.082Z,19.40
2019-01-05T22:01:55.838Z,20.73
2019-01-05T22:04:52.914Z,13.03
2019-01-05T22:07:37.945Z,14.60
2019-01-05T22:10:25.739Z,10.40
2019-01-05T22:13:12.353Z,14.53
2019-01-05T22:16:03.335Z,11.60
2019-01-05T22:19:00.611Z,6.90
2019-01-05T22:21:51.572Z,10.63
2019-01-05T22:24:37.199Z,13.80
2019-01-05T22:27:28.049Z,14.47
2019-01-05T22:30:21.941Z,17.20
2019-01-05T22:33:07.739Z,9.93
2019-01-05T22:35:54.403Z,12.13
2019-01-05T22:38:42.415Z,10.90
2019-01-05T22:41:30.413Z,9.80
2019-01-05T22:44:17.091Z,6.27
2019-01-05T22:47:06.050Z,8.73
2019-01-05T22:49:53.020Z,8.37
2019-01-05T22:52:47.139Z,17.90
2019-01-05T22:55:30.627Z,14.53
2019-01-05T22:58:31.930Z,17.97
2019-01-05T23:01:35.143Z,10.70
2019-01-05T23:04:33.562Z,18.23
2019-01-05T23:07:24.268Z,10.83
2019-01-05T23:10:11.243Z,11.50
2019-01-05T23:13:08.503Z,10.80
2019-01-05T23:15:55.091Z,14.20
2019-01-05T23:18:53.903Z,9.87
2019-01-05T23:21:40.647Z,10.93
2019-01-05T23:24:27.789Z,10.40
2019-01-05T23:27:14.434Z,18.87
2019-01-05T23:30:16.375Z,17.20
2019-01-05T23:33:04.538Z,21.47
2019-01-05T23:36:04.537Z,13.70
2019-01-05T23:38:52.411Z,8.20
2019-01-05T23:41:43.084Z,11.13
2019-01-05T23:44:42.876Z,15.37
2019-01-05T23:47:29.355Z,6.07
2019-01-05T23:50:12.411Z,9.00
2019-01-05T23:52:58.884Z,9.83
2019-01-05T23:55:45.860Z,12.07
2019-01-05T23:58:57.943Z,15.00
